Thornton, Mississippi
Current Conditions -  °F | °C
As of 12:13 AM on Saturday 20 Dec 2014 (Local Time) from KGWO Reporting Station
Overcast Overcast  
Wind Chill: 39°   Ceiling: 7000
Heat Index: 43°   Visibility: 10mi
Dew Point: 40°   Wind: 6mph
Humidity: 89%   Direction: 20°NNE
Pressure: 30.21"   Gusts: NA
Location:  33.1467°N, 90.274°W
Report Text: KGWO 200613Z AUTO 02005KT 10SM FEW009 OVC070 06/04 A3021 RMK AO2 T00610044
Loading
Personal Weather Stations






























Interactive Weather Map New forecast layout! Learn more

10-Day Weather Forecast

Advertisements
Track Severe Weather on mobile